Pagrindinis puslapis
METAR-TAF:

METAR-TAF

Oro uostai :

Geteborgas, Švedija

platuma: 57-47N, ilguma: 011-53E, Aukštis: 20 m

Dabartinis oras

Ataskaita buvo paskelbta 33 minutes, ne 08:20 UTC
Vėjas 10 kt iš Vakarų
Temperatūra 13°C
Drėgmė 82%
Slėgis 1002 hPa
Matomumas 10 km arba daugiau
Mažai debesys ne aukštis 1900 ft
Su prošvaistėmis ne aukštis 5500 ft

METAR: ESGP 020820Z 27010KT 9999 FEW019 BKN055 13/10 Q1002

Laikas: 10:53 (08:53 UTC)

Prognozė

Ataskaita buvo paskelbta 23 minutes, ne 08:30 UTC
Prognozė galioja nuo 02 metu 09 UTC su 02 metu 18 UTC
Vėjas 10 kt iš Šiaurės/Šiaurės Vakarų
Matomumas 10 km arba daugiau
Išsisklaidę debesys ne aukštis 2000 ft
Su prošvaistėmis ne aukštis 3000 ft
Tikimybė 40%
nuo 02 metu 09 UTC su 02 metu 10 UTC
Matomumas: 4000 m
Su prošvaistėmis ne aukštis 1400 ft
lietus, dulksna, rūkana

TAF: ESGP 020830Z 0209/0218 33010KT 9999 SCT020 BKN030 PROB40 0209/0210 4000 -RADZ BR BKN014

Orai ataskaitas ir orų prognozės (METAR, TAF).

turimą stotys yra geltonos ir raudonos taškus žemėlapyje.

Perkelti pele per norėdami pamatyti stoties vardą.

Tada spustelėkite, norėdami matyti oro stebėjimo ir prognozės.

Norėdami pakeisti žemėlapį: spustelėkite ant žalios mygtukų su juodo kryžiaus žemyn,; žalią mygtuką su brūkšneliu, jei norite nutolinti; arba žalių rodyklių gretimoms žemėlapius.


METAR-TAF: